sensor_id;sensor_type;location;lat;lon;timestamp;pressure;altitude;pressure_sealevel;temperature;humidity
54994;BME280;40891;47.242;8.648;2022-12-10T00:01:11;95023.44;;;2.49;100.00
54994;BME280;40891;47.242;8.648;2022-12-10T00:03:37;95023.44;;;2.49;100.00
54994;BME280;40891;47.242;8.648;2022-12-10T00:06:05;95022.59;;;2.52;100.00
54994;BME280;40891;47.242;8.648;2022-12-10T00:08:31;95011.50;;;2.56;100.00
54994;BME280;40891;47.242;8.648;2022-12-10T00:10:56;95018.28;;;2.51;100.00
54994;BME280;40891;47.242;8.648;2022-12-10T00:13:22;95003.47;;;2.49;100.00
54994;BME280;40891;47.242;8.648;2022-12-10T00:15:47;95004.91;;;2.53;100.00
54994;BME280;40891;47.242;8.648;2022-12-10T00:18:12;95011.69;;;2.49;100.00
54994;BME280;40891;47.242;8.648;2022-12-10T00:20:38;95008.97;;;2.49;100.00
54994;BME280;40891;47.242;8.648;2022-12-10T00:23:03;94997.66;;;2.47;100.00
54994;BME280;40891;47.242;8.648;2022-12-10T00:25:29;95014.38;;;2.52;100.00
54994;BME280;40891;47.242;8.648;2022-12-10T00:27:54;95004.16;;;2.53;100.00
54994;BME280;40891;47.242;8.648;2022-12-10T00:30:19;95006.47;;;2.54;100.00
54994;BME280;40891;47.242;8.648;2022-12-10T00:32:45;95003.38;;;2.52;100.00
54994;BME280;40891;47.242;8.648;2022-12-10T00:35:10;94995.94;;;2.53;100.00
54994;BME280;40891;47.242;8.648;2022-12-10T00:37:35;94999.44;;;2.53;100.00
54994;BME280;40891;47.242;8.648;2022-12-10T00:40:01;95004.59;;;2.51;100.00
54994;BME280;40891;47.242;8.648;2022-12-10T00:42:26;94989.69;;;2.52;100.00
54994;BME280;40891;47.242;8.648;2022-12-10T00:44:51;94988.13;;;2.51;100.00
54994;BME280;40891;47.242;8.648;2022-12-10T00:47:17;94982.13;;;2.56;100.00
54994;BME280;40891;47.242;8.648;2022-12-10T00:49:42;94994.31;;;2.55;100.00
54994;BME280;40891;47.242;8.648;2022-12-10T00:52:07;94996.28;;;2.55;100.00
54994;BME280;40891;47.242;8.648;2022-12-10T00:54:33;94998.91;;;2.58;100.00
54994;BME280;40891;47.242;8.648;2022-12-10T00:56:58;94994.31;;;2.55;100.00
54994;BME280;40891;47.242;8.648;2022-12-10T00:59:23;94991.19;;;2.53;100.00
54994;BME280;40891;47.242;8.648;2022-12-10T01:01:49;94997.91;;;2.52;100.00
54994;BME280;40891;47.242;8.648;2022-12-10T01:04:16;94994.63;;;2.57;100.00
54994;BME280;40891;47.242;8.648;2022-12-10T01:06:51;95000.66;;;2.52;100.00
54994;BME280;40891;47.242;8.648;2022-12-10T01:09:25;94993.94;;;2.53;100.00
54994;BME280;40891;47.242;8.648;2022-12-10T01:11:52;94996.69;;;2.53;100.00
54994;BME280;40891;47.242;8.648;2022-12-10T01:14:21;94998.75;;;2.49;100.00
54994;BME280;40891;47.242;8.648;2022-12-10T01:16:48;95002.63;;;2.52;100.00
54994;BME280;40891;47.242;8.648;2022-12-10T01:19:14;95012.47;;;2.49;100.00
54994;BME280;40891;47.242;8.648;2022-12-10T01:21:39;95012.41;;;2.53;100.00
54994;BME280;40891;47.242;8.648;2022-12-10T01:24:05;95013.25;;;2.50;100.00
54994;BME280;40891;47.242;8.648;2022-12-10T01:26:32;95021.94;;;2.48;100.00
54994;BME280;40891;47.242;8.648;2022-12-10T01:28:59;95022.69;;;2.49;100.00
54994;BME280;40891;47.242;8.648;2022-12-10T01:31:30;95019.59;;;2.47;100.00
54994;BME280;40891;47.242;8.648;2022-12-10T01:33:56;95027.50;;;2.45;100.00
54994;BME280;40891;47.242;8.648;2022-12-10T01:36:25;95034.16;;;2.44;100.00
54994;BME280;40891;47.242;8.648;2022-12-10T01:38:52;95028.28;;;2.45;100.00
54994;BME280;40891;47.242;8.648;2022-12-10T01:41:21;95023.66;;;2.42;100.00
54994;BME280;40891;47.242;8.648;2022-12-10T01:44:00;95029.56;;;2.41;100.00
54994;BME280;40891;47.242;8.648;2022-12-10T01:46:34;95033.09;;;2.41;100.00
54994;BME280;40891;47.242;8.648;2022-12-10T01:49:02;95033.16;;;2.38;100.00
54994;BME280;40891;47.242;8.648;2022-12-10T01:51:31;95031.88;;;2.42;100.00
54994;BME280;40891;47.242;8.648;2022-12-10T01:53:57;95036.34;;;2.36;100.00
54994;BME280;40891;47.242;8.648;2022-12-10T01:56:23;95025.38;;;2.36;100.00
54994;BME280;40891;47.242;8.648;2022-12-10T01:58:50;95028.53;;;2.35;100.00
54994;BME280;40891;47.242;8.648;2022-12-10T02:07:13;95028.47;;;2.38;100.00
54994;BME280;40891;47.242;8.648;2022-12-10T02:09:51;95034.81;;;2.35;100.00
54994;BME280;40891;47.242;8.648;2022-12-10T02:12:33;95034.03;;;2.35;100.00
54994;BME280;40891;47.242;8.648;2022-12-10T02:17:45;95035.66;;;2.32;100.00
54994;BME280;40891;47.242;8.648;2022-12-10T02:20:24;95037.47;;;2.39;100.00
54994;BME280;40891;47.242;8.648;2022-12-10T02:23:11;95039.44;;;2.38;100.00
54994;BME280;40891;47.242;8.648;2022-12-10T02:25:46;95037.09;;;2.37;100.00
54994;BME280;40891;47.242;8.648;2022-12-10T02:28:21;95034.81;;;2.35;100.00
54994;BME280;40891;47.242;8.648;2022-12-10T02:30:50;95033.84;;;2.42;100.00
54994;BME280;40891;47.242;8.648;2022-12-10T02:33:18;95026.13;;;2.37;100.00
54994;BME280;40891;47.242;8.648;2022-12-10T02:35:47;95030.44;;;2.38;100.00
54994;BME280;40891;47.242;8.648;2022-12-10T02:38:18;95024.50;;;2.39;100.00
54994;BME280;40891;47.242;8.648;2022-12-10T02:40:48;95019.91;;;2.36;100.00
54994;BME280;40891;47.242;8.648;2022-12-10T02:43:16;95026.25;;;2.33;100.00
54994;BME280;40891;47.242;8.648;2022-12-10T02:45:43;95014.41;;;2.36;100.00
54994;BME280;40891;47.242;8.648;2022-12-10T02:48:09;95013.72;;;2.32;100.00
54994;BME280;40891;47.242;8.648;2022-12-10T02:50:35;95015.38;;;2.30;100.00
54994;BME280;40891;47.242;8.648;2022-12-10T02:53:00;95010.66;;;2.30;100.00
54994;BME280;40891;47.242;8.648;2022-12-10T02:55:26;95012.06;;;2.22;100.00
54994;BME280;40891;47.242;8.648;2022-12-10T02:58:15;95009.41;;;2.19;100.00
54994;BME280;40891;47.242;8.648;2022-12-10T03:01:20;95016.50;;;2.16;100.00
54994;BME280;40891;47.242;8.648;2022-12-10T03:03:50;95008.41;;;2.13;100.00
54994;BME280;40891;47.242;8.648;2022-12-10T03:06:31;95016.63;;;2.13;100.00
54994;BME280;40891;47.242;8.648;2022-12-10T03:09:22;95006.00;;;2.15;100.00
54994;BME280;40891;47.242;8.648;2022-12-10T03:11:50;95007.63;;;2.12;100.00
54994;BME280;40891;47.242;8.648;2022-12-10T03:14:30;95004.97;;;2.08;100.00
54994;BME280;40891;47.242;8.648;2022-12-10T03:16:58;95009.16;;;2.13;100.00
54994;BME280;40891;47.242;8.648;2022-12-10T03:19:28;94997.44;;;2.13;100.00
54994;BME280;40891;47.242;8.648;2022-12-10T03:21:56;94997.50;;;2.09;100.00
54994;BME280;40891;47.242;8.648;2022-12-10T03:24:25;95009.34;;;2.06;100.00
54994;BME280;40891;47.242;8.648;2022-12-10T03:26:52;94997.19;;;2.07;100.00
54994;BME280;40891;47.242;8.648;2022-12-10T03:29:22;94990.16;;;2.06;100.00
54994;BME280;40891;47.242;8.648;2022-12-10T03:31:51;94994.44;;;2.07;100.00
54994;BME280;40891;47.242;8.648;2022-12-10T03:34:18;94989.81;;;2.04;100.00
54994;BME280;40891;47.242;8.648;2022-12-10T03:36:44;95000.09;;;2.00;100.00
54994;BME280;40891;47.242;8.648;2022-12-10T03:39:10;94996.00;;;2.08;100.00
54994;BME280;40891;47.242;8.648;2022-12-10T03:41:35;94994.88;;;2.05;100.00
54994;BME280;40891;47.242;8.648;2022-12-10T03:44:01;94992.56;;;2.04;100.00
54994;BME280;40891;47.242;8.648;2022-12-10T03:46:28;95008.16;;;2.07;100.00
54994;BME280;40891;47.242;8.648;2022-12-10T03:48:54;95006.59;;;2.06;100.00
54994;BME280;40891;47.242;8.648;2022-12-10T03:51:20;94998.38;;;2.06;100.00
54994;BME280;40891;47.242;8.648;2022-12-10T03:53:45;94993.47;;;2.14;100.00
54994;BME280;40891;47.242;8.648;2022-12-10T03:56:11;95003.78;;;2.10;100.00
54994;BME280;40891;47.242;8.648;2022-12-10T03:58:36;95002.41;;;2.18;100.00
54994;BME280;40891;47.242;8.648;2022-12-10T04:01:03;95007.97;;;2.14;100.00
54994;BME280;40891;47.242;8.648;2022-12-10T04:03:28;95002.47;;;2.14;100.00
54994;BME280;40891;47.242;8.648;2022-12-10T04:05:54;95013.09;;;2.12;100.00
54994;BME280;40891;47.242;8.648;2022-12-10T04:08:19;95016.69;;;2.09;100.00
54994;BME280;40891;47.242;8.648;2022-12-10T04:10:44;95018.34;;;2.06;100.00
54994;BME280;40891;47.242;8.648;2022-12-10T04:13:10;95013.53;;;2.11;100.00
54994;BME280;40891;47.242;8.648;2022-12-10T04:15:56;95008.53;;;2.22;100.00
54994;BME280;40891;47.242;8.648;2022-12-10T04:18:40;95004.44;;;2.14;100.00
54994;BME280;40891;47.242;8.648;2022-12-10T04:21:05;95004.22;;;2.08;100.00
54994;BME280;40891;47.242;8.648;2022-12-10T04:23:49;95010.22;;;2.03;100.00
54994;BME280;40891;47.242;8.648;2022-12-10T04:26:33;95011.59;;;1.95;100.00
54994;BME280;40891;47.242;8.648;2022-12-10T04:29:18;94996.78;;;1.92;100.00
54994;BME280;40891;47.242;8.648;2022-12-10T04:31:44;94995.47;;;1.97;100.00
54994;BME280;40891;47.242;8.648;2022-12-10T04:34:09;94996.00;;;1.92;100.00
54994;BME280;40891;47.242;8.648;2022-12-10T04:36:34;94997.88;;;1.95;100.00
54994;BME280;40891;47.242;8.648;2022-12-10T04:39:00;95006.44;;;1.97;100.00
54994;BME280;40891;47.242;8.648;2022-12-10T04:41:25;95002.50;;;1.98;100.00
54994;BME280;40891;47.242;8.648;2022-12-10T04:43:52;94995.66;;;1.90;100.00
54994;BME280;40891;47.242;8.648;2022-12-10T04:46:17;95004.00;;;1.86;100.00
54994;BME280;40891;47.242;8.648;2022-12-10T04:48:43;95015.38;;;1.85;100.00
54994;BME280;40891;47.242;8.648;2022-12-10T04:51:08;95009.53;;;1.83;100.00
54994;BME280;40891;47.242;8.648;2022-12-10T04:53:34;95013.91;;;1.80;100.00
54994;BME280;40891;47.242;8.648;2022-12-10T04:55:59;95013.91;;;1.80;100.00
54994;BME280;40891;47.242;8.648;2022-12-10T04:58:26;95013.13;;;1.80;100.00
54994;BME280;40891;47.242;8.648;2022-12-10T05:01:02;95019.06;;;1.78;100.00
54994;BME280;40891;47.242;8.648;2022-12-10T05:03:27;95023.00;;;1.77;100.00
54994;BME280;40891;47.242;8.648;2022-12-10T05:05:52;95026.16;;;1.76;100.00
54994;BME280;40891;47.242;8.648;2022-12-10T05:08:18;95014.00;;;1.77;100.00
54994;BME280;40891;47.242;8.648;2022-12-10T05:10:43;95014.16;;;1.86;100.00
54994;BME280;40891;47.242;8.648;2022-12-10T05:13:08;95012.72;;;1.81;100.00
54994;BME280;40891;47.242;8.648;2022-12-10T05:15:37;95015.03;;;1.83;100.00
54994;BME280;40891;47.242;8.648;2022-12-10T05:18:03;95016.91;;;1.86;100.00
54994;BME280;40891;47.242;8.648;2022-12-10T05:20:28;95016.56;;;1.84;100.00
54994;BME280;40891;47.242;8.648;2022-12-10T05:22:53;95028.31;;;1.84;100.00
54994;BME280;40891;47.242;8.648;2022-12-10T05:25:37;95025.91;;;1.86;100.00
54994;BME280;40891;47.242;8.648;2022-12-10T05:28:20;95028.66;;;1.86;100.00
54994;BME280;40891;47.242;8.648;2022-12-10T05:30:46;95032.16;;;1.87;100.00
54994;BME280;40891;47.242;8.648;2022-12-10T05:33:11;95033.69;;;1.88;100.00
54994;BME280;40891;47.242;8.648;2022-12-10T05:35:37;95041.47;;;1.89;100.00
54994;BME280;40891;47.242;8.648;2022-12-10T05:38:02;95052.53;;;1.86;100.00
54994;BME280;40891;47.242;8.648;2022-12-10T05:40:27;95055.72;;;1.84;100.00
54994;BME280;40891;47.242;8.648;2022-12-10T05:42:53;95059.19;;;1.85;100.00
54994;BME280;40891;47.242;8.648;2022-12-10T05:45:18;95056.22;;;1.79;100.00
54994;BME280;40891;47.242;8.648;2022-12-10T05:47:43;95052.53;;;1.86;100.00
54994;BME280;40891;47.242;8.648;2022-12-10T05:50:09;95048.75;;;1.80;100.00
54994;BME280;40891;47.242;8.648;2022-12-10T05:52:34;95054.66;;;1.78;100.00
54994;BME280;40891;47.242;8.648;2022-12-10T05:54:59;95056.72;;;1.74;100.00
54994;BME280;40891;47.242;8.648;2022-12-10T05:57:25;95056.72;;;1.74;100.00
54994;BME280;40891;47.242;8.648;2022-12-10T05:59:50;95057.13;;;1.73;100.00
54994;BME280;40891;47.242;8.648;2022-12-10T06:02:15;95046.63;;;1.71;100.00
54994;BME280;40891;47.242;8.648;2022-12-10T06:04:41;95061.44;;;1.74;100.00
54994;BME280;40891;47.242;8.648;2022-12-10T06:07:06;95059.13;;;1.72;100.00
54994;BME280;40891;47.242;8.648;2022-12-10T06:09:32;95061.53;;;1.70;100.00
54994;BME280;40891;47.242;8.648;2022-12-10T06:11:57;95056.47;;;1.69;100.00
54994;BME280;40891;47.242;8.648;2022-12-10T06:14:23;95063.16;;;1.68;100.00
54994;BME280;40891;47.242;8.648;2022-12-10T06:16:48;95067.19;;;1.63;100.00
54994;BME280;40891;47.242;8.648;2022-12-10T06:19:13;95069.47;;;1.65;100.00
54994;BME280;40891;47.242;8.648;2022-12-10T06:21:39;95067.53;;;1.65;100.00
54994;BME280;40891;47.242;8.648;2022-12-10T06:24:04;95068.69;;;1.64;100.00
54994;BME280;40891;47.242;8.648;2022-12-10T06:26:30;95062.88;;;1.62;100.00
54994;BME280;40891;47.242;8.648;2022-12-10T06:28:55;95060.94;;;1.63;100.00
54994;BME280;40891;47.242;8.648;2022-12-10T06:31:21;95066.41;;;1.63;100.00
54994;BME280;40891;47.242;8.648;2022-12-10T06:33:46;95070.25;;;1.65;100.00
54994;BME280;40891;47.242;8.648;2022-12-10T06:36:14;95076.16;;;1.64;100.00
54994;BME280;40891;47.242;8.648;2022-12-10T06:38:40;95075.72;;;1.65;100.00
54994;BME280;40891;47.242;8.648;2022-12-10T06:41:07;95076.47;;;1.66;100.00
54994;BME280;40891;47.242;8.648;2022-12-10T06:43:33;95085.06;;;1.68;100.00
54994;BME280;40891;47.242;8.648;2022-12-10T06:45:58;95086.59;;;1.69;100.00
54994;BME280;40891;47.242;8.648;2022-12-10T06:48:24;95076.56;;;1.62;100.00
54994;BME280;40891;47.242;8.648;2022-12-10T06:50:49;95085.91;;;1.65;100.00
54994;BME280;40891;47.242;8.648;2022-12-10T06:53:14;95092.22;;;1.62;100.00
54994;BME280;40891;47.242;8.648;2022-12-10T06:55:40;95096.19;;;1.61;100.00
54994;BME280;40891;47.242;8.648;2022-12-10T06:58:05;95099.25;;;1.63;100.00
54994;BME280;40891;47.242;8.648;2022-12-10T07:00:31;95094.81;;;1.69;100.00
54994;BME280;40891;47.242;8.648;2022-12-10T07:02:56;95091.38;;;1.65;100.00
54994;BME280;40891;47.242;8.648;2022-12-10T07:05:21;95090.63;;;1.64;100.00
54994;BME280;40891;47.242;8.648;2022-12-10T07:07:47;95096.53;;;1.63;100.00
54994;BME280;40891;47.242;8.648;2022-12-10T07:10:12;95097.31;;;1.63;100.00
54994;BME280;40891;47.242;8.648;2022-12-10T07:12:38;95090.19;;;1.66;100.00
54994;BME280;40891;47.242;8.648;2022-12-10T07:15:04;95094.47;;;1.67;100.00
54994;BME280;40891;47.242;8.648;2022-12-10T07:17:29;95083.50;;;1.67;100.00
54994;BME280;40891;47.242;8.648;2022-12-10T07:19:54;95099.88;;;1.70;100.00
54994;BME280;40891;47.242;8.648;2022-12-10T07:22:20;95101.41;;;1.71;100.00
54994;BME280;40891;47.242;8.648;2022-12-10T07:24:47;95104.25;;;1.68;100.00
54994;BME280;40891;47.242;8.648;2022-12-10T07:27:13;95103.03;;;1.69;100.00
54994;BME280;40891;47.242;8.648;2022-12-10T07:29:38;95107.31;;;1.70;100.00
54994;BME280;40891;47.242;8.648;2022-12-10T07:32:04;95106.88;;;1.71;100.00
54994;BME280;40891;47.242;8.648;2022-12-10T07:34:29;95101.34;;;1.75;100.00
54994;BME280;40891;47.242;8.648;2022-12-10T07:36:54;95095.09;;;1.74;100.00
54994;BME280;40891;47.242;8.648;2022-12-10T07:39:20;95100.06;;;1.79;100.00
54994;BME280;40891;47.242;8.648;2022-12-10T07:41:50;95100.06;;;1.79;100.00
54994;BME280;40891;47.242;8.648;2022-12-10T07:44:18;95113.75;;;1.79;100.00
54994;BME280;40891;47.242;8.648;2022-12-10T07:46:44;95115.03;;;1.75;100.00
54994;BME280;40891;47.242;8.648;2022-12-10T07:49:10;95113.13;;;1.72;100.00
54994;BME280;40891;47.242;8.648;2022-12-10T07:51:35;95113.97;;;1.69;100.00
54994;BME280;40891;47.242;8.648;2022-12-10T07:54:01;95117.56;;;1.66;100.00
54994;BME280;40891;47.242;8.648;2022-12-10T07:56:26;95126.66;;;1.63;100.00
54994;BME280;40891;47.242;8.648;2022-12-10T07:58:52;95123.47;;;1.64;100.00
54994;BME280;40891;47.242;8.648;2022-12-10T08:01:25;95134.00;;;1.66;100.00
54994;BME280;40891;47.242;8.648;2022-12-10T08:03:52;95132.97;;;1.60;100.00
54994;BME280;40891;47.242;8.648;2022-12-10T08:06:20;95138.28;;;1.67;100.00
54994;BME280;40891;47.242;8.648;2022-12-10T08:08:46;95141.47;;;1.65;100.00
54994;BME280;40891;47.242;8.648;2022-12-10T08:11:14;95142.59;;;1.68;100.00
54994;BME280;40891;47.242;8.648;2022-12-10T08:13:40;95142.94;;;1.70;100.00
54994;BME280;40891;47.242;8.648;2022-12-10T08:16:09;95153.78;;;1.73;100.00
54994;BME280;40891;47.242;8.648;2022-12-10T08:18:35;95149.09;;;1.74;100.00
54994;BME280;40891;47.242;8.648;2022-12-10T08:21:09;95155.25;;;1.78;100.00
54994;BME280;40891;47.242;8.648;2022-12-10T08:23:35;95155.69;;;1.76;100.00
54994;BME280;40891;47.242;8.648;2022-12-10T08:26:12;95157.59;;;1.95;100.00
54994;BME280;40891;47.242;8.648;2022-12-10T08:28:38;95164.38;;;1.91;100.00
54994;BME280;40891;47.242;8.648;2022-12-10T08:31:04;95164.59;;;1.80;100.00
54994;BME280;40891;47.242;8.648;2022-12-10T08:33:30;95167.75;;;1.79;100.00
54994;BME280;40891;47.242;8.648;2022-12-10T08:35:58;95166.38;;;1.71;100.00
54994;BME280;40891;47.242;8.648;2022-12-10T08:38:27;95172.72;;;1.68;100.00
54994;BME280;40891;47.242;8.648;2022-12-10T08:40:52;95171.16;;;1.67;100.00
54994;BME280;40891;47.242;8.648;2022-12-10T08:43:18;95174.59;;;1.71;100.00
54994;BME280;40891;47.242;8.648;2022-12-10T08:45:43;95172.78;;;1.64;100.00
54994;BME280;40891;47.242;8.648;2022-12-10T08:48:09;95181.84;;;1.61;100.00
54994;BME280;40891;47.242;8.648;2022-12-10T08:50:36;95178.50;;;1.54;100.00
54994;BME280;40891;47.242;8.648;2022-12-10T08:53:01;95184.47;;;1.49;100.00
54994;BME280;40891;47.242;8.648;2022-12-10T08:55:26;95181.72;;;1.49;100.00
54994;BME280;40891;47.242;8.648;2022-12-10T08:57:52;95186.00;;;1.50;100.00
54994;BME280;40891;47.242;8.648;2022-12-10T09:00:17;95195.56;;;1.42;100.00
54994;BME280;40891;47.242;8.648;2022-12-10T09:02:44;95203.00;;;1.41;100.00
54994;BME280;40891;47.242;8.648;2022-12-10T09:05:09;95206.53;;;1.42;100.00
54994;BME280;40891;47.242;8.648;2022-12-10T09:07:34;95215.16;;;1.40;100.00
54994;BME280;40891;47.242;8.648;2022-12-10T09:10:00;95212.84;;;1.38;100.00
54994;BME280;40891;47.242;8.648;2022-12-10T09:12:25;95217.97;;;1.36;100.00
54994;BME280;40891;47.242;8.648;2022-12-10T09:14:51;95215.91;;;1.41;100.00
54994;BME280;40891;47.242;8.648;2022-12-10T09:17:16;95224.91;;;1.41;100.00
54994;BME280;40891;47.242;8.648;2022-12-10T09:19:41;95218.66;;;1.41;100.00
54994;BME280;40891;47.242;8.648;2022-12-10T09:22:07;95234.75;;;1.38;100.00
54994;BME280;40891;47.242;8.648;2022-12-10T09:24:32;95230.38;;;1.41;100.00
54994;BME280;40891;47.242;8.648;2022-12-10T09:26:57;95241.78;;;1.40;100.00
54994;BME280;40891;47.242;8.648;2022-12-10T09:29:23;95229.59;;;1.41;100.00
54994;BME280;40891;47.242;8.648;2022-12-10T09:31:51;95244.09;;;1.41;100.00
54994;BME280;40891;47.242;8.648;2022-12-10T09:34:17;95247.66;;;1.38;100.00
54994;BME280;40891;47.242;8.648;2022-12-10T09:36:42;95246.13;;;1.37;100.00
54994;BME280;40891;47.242;8.648;2022-12-10T09:39:08;95252.72;;;1.40;100.00
54994;BME280;40891;47.242;8.648;2022-12-10T09:44:10;95253.81;;;1.42;100.00
54994;BME280;40891;47.242;8.648;2022-12-10T09:46:44;95260.41;;;1.45;100.00
54994;BME280;40891;47.242;8.648;2022-12-10T09:51:47;95260.03;;;1.46;100.00
54994;BME280;40891;47.242;8.648;2022-12-10T09:54:24;95264.53;;;1.56;100.00
54994;BME280;40891;47.242;8.648;2022-12-10T09:56:51;95266.63;;;1.49;100.00
54994;BME280;40891;47.242;8.648;2022-12-10T10:02:21;95267.81;;;1.48;100.00
54994;BME280;40891;47.242;8.648;2022-12-10T10:04:49;95268.50;;;1.52;100.00
54994;BME280;40891;47.242;8.648;2022-12-10T10:07:20;95267.19;;;1.60;100.00
54994;BME280;40891;47.242;8.648;2022-12-10T10:09:46;95265.28;;;1.57;100.00
54994;BME280;40891;47.242;8.648;2022-12-10T10:12:15;95270.06;;;1.53;100.00
54994;BME280;40891;47.242;8.648;2022-12-10T10:14:42;95263.59;;;1.63;100.00
54994;BME280;40891;47.242;8.648;2022-12-10T10:17:14;95262.88;;;1.59;100.00
54994;BME280;40891;47.242;8.648;2022-12-10T10:19:42;95264.94;;;1.55;100.00
54994;BME280;40891;47.242;8.648;2022-12-10T10:22:10;95274.34;;;1.54;100.00
54994;BME280;40891;47.242;8.648;2022-12-10T10:24:44;95283.31;;;1.54;100.00
54994;BME280;40891;47.242;8.648;2022-12-10T10:27:17;95280.66;;;1.51;100.00
54994;BME280;40891;47.242;8.648;2022-12-10T10:29:46;95284.56;;;1.50;100.00
54994;BME280;40891;47.242;8.648;2022-12-10T10:32:16;95277.91;;;1.51;100.00
54994;BME280;40891;47.242;8.648;2022-12-10T10:34:42;95273.75;;;1.43;100.00
54994;BME280;40891;47.242;8.648;2022-12-10T10:37:15;95291.47;;;1.38;100.00
54994;BME280;40891;47.242;8.648;2022-12-10T10:39:46;95282.28;;;1.48;100.00
54994;BME280;40891;47.242;8.648;2022-12-10T10:42:24;95287.44;;;1.43;100.00
54994;BME280;40891;47.242;8.648;2022-12-10T10:44:50;95286.28;;;1.44;100.00
54994;BME280;40891;47.242;8.648;2022-12-10T10:47:28;95277.97;;;1.47;100.00
54994;BME280;40891;47.242;8.648;2022-12-10T10:49:54;95284.03;;;1.58;100.00
54994;BME280;40891;47.242;8.648;2022-12-10T10:52:20;95281.69;;;1.57;100.00
54994;BME280;40891;47.242;8.648;2022-12-10T10:54:46;95287.53;;;1.59;100.00
54994;BME280;40891;47.242;8.648;2022-12-10T10:57:19;95289.88;;;1.60;100.00
54994;BME280;40891;47.242;8.648;2022-12-10T10:59:46;95284.31;;;1.64;100.00
54994;BME280;40891;47.242;8.648;2022-12-10T11:02:37;95283.03;;;1.68;100.00
54994;BME280;40891;47.242;8.648;2022-12-10T11:05:14;95284.94;;;1.71;100.00
54994;BME280;40891;47.242;8.648;2022-12-10T11:07:41;95287.25;;;1.73;100.00
54994;BME280;40891;47.242;8.648;2022-12-10T11:10:17;95293.09;;;1.75;100.00
54994;BME280;40891;47.242;8.648;2022-12-10T11:12:44;95289.56;;;1.74;100.00
54994;BME280;40891;47.242;8.648;2022-12-10T11:17:52;95293.84;;;1.75;100.00
54994;BME280;40891;47.242;8.648;2022-12-10T11:20:24;95288.31;;;1.79;100.00
54994;BME280;40891;47.242;8.648;2022-12-10T11:22:55;95302.50;;;1.74;100.00
54994;BME280;40891;47.242;8.648;2022-12-10T11:30:53;95307.91;;;1.77;100.00
54994;BME280;40891;47.242;8.648;2022-12-10T11:33:29;95308.31;;;1.76;100.00
54994;BME280;40891;47.242;8.648;2022-12-10T11:36:25;95310.38;;;1.72;100.00
54994;BME280;40891;47.242;8.648;2022-12-10T11:41:27;95316.97;;;1.74;100.00
54994;BME280;40891;47.242;8.648;2022-12-10T11:44:19;95319.75;;;1.71;100.00
54994;BME280;40891;47.242;8.648;2022-12-10T11:50:19;95323.78;;;1.66;100.00
54994;BME280;40891;47.242;8.648;2022-12-10T11:53:13;95320.88;;;1.73;100.00
54994;BME280;40891;47.242;8.648;2022-12-10T12:04:44;95315.22;;;1.84;100.00
54994;BME280;40891;47.242;8.648;2022-12-10T12:07:30;95324.22;;;1.84;100.00
54994;BME280;40891;47.242;8.648;2022-12-10T12:20:37;95348.59;;;1.79;100.00
54994;BME280;40891;47.242;8.648;2022-12-10T12:23:15;95350.47;;;1.82;100.00
54994;BME280;40891;47.242;8.648;2022-12-10T12:25:48;95357.38;;;1.70;100.00
54994;BME280;40891;47.242;8.648;2022-12-10T12:31:11;95362.72;;;1.77;100.00
54994;BME280;40891;47.242;8.648;2022-12-10T12:33:50;95357.97;;;1.78;100.00
54994;BME280;40891;47.242;8.648;2022-12-10T12:36:20;95362.91;;;1.67;100.00
54994;BME280;40891;47.242;8.648;2022-12-10T12:39:10;95364.94;;;1.63;100.00
54994;BME280;40891;47.242;8.648;2022-12-10T12:42:04;95367.59;;;1.66;100.00
54994;BME280;40891;47.242;8.648;2022-12-10T12:47:41;95372.06;;;1.57;100.00
54994;BME280;40891;47.242;8.648;2022-12-10T12:50:42;95367.31;;;1.61;100.00
54994;BME280;40891;47.242;8.648;2022-12-10T12:53:13;95380.16;;;1.64;100.00
54994;BME280;40891;47.242;8.648;2022-12-10T12:55:56;95382.63;;;1.78;100.00
54994;BME280;40891;47.242;8.648;2022-12-10T12:58:35;95370.69;;;1.68;100.00
54994;BME280;40891;47.242;8.648;2022-12-10T13:01:12;95375.69;;;1.93;100.00
54994;BME280;40891;47.242;8.648;2022-12-10T13:03:40;95375.97;;;1.79;100.00
54994;BME280;40891;47.242;8.648;2022-12-10T13:06:16;95381.47;;;1.79;100.00
54994;BME280;40891;47.242;8.648;2022-12-10T13:08:47;95391.97;;;1.61;100.00
54994;BME280;40891;47.242;8.648;2022-12-10T13:11:19;95390.06;;;1.58;100.00
54994;BME280;40891;47.242;8.648;2022-12-10T13:19:44;95412.91;;;1.71;100.00
54994;BME280;40891;47.242;8.648;2022-12-10T13:22:56;95406.56;;;1.54;100.00
54994;BME280;40891;47.242;8.648;2022-12-10T13:27:38;95420.06;;;1.65;100.00
54994;BME280;40891;47.242;8.648;2022-12-10T13:30:26;95412.47;;;1.53;100.00
54994;BME280;40891;47.242;8.648;2022-12-10T13:32:53;95421.84;;;1.52;100.00
54994;BME280;40891;47.242;8.648;2022-12-10T13:35:31;95436.03;;;1.47;100.00
54994;BME280;40891;47.242;8.648;2022-12-10T13:38:17;95427.06;;;1.46;100.00
54994;BME280;40891;47.242;8.648;2022-12-10T13:40:57;95438.81;;;1.43;100.00
54994;BME280;40891;47.242;8.648;2022-12-10T13:43:41;95443.34;;;1.53;100.00
54994;BME280;40891;47.242;8.648;2022-12-10T13:46:34;95442.59;;;1.53;100.00
54994;BME280;40891;47.242;8.648;2022-12-10T13:49:01;95443.75;;;1.52;100.00
54994;BME280;40891;47.242;8.648;2022-12-10T13:51:52;95441.13;;;1.45;100.00
54994;BME280;40891;47.242;8.648;2022-12-10T13:54:47;95456.88;;;1.41;100.00
54994;BME280;40891;47.242;8.648;2022-12-10T14:00:22;95462.41;;;1.37;100.00
54994;BME280;40891;47.242;8.648;2022-12-10T14:06:00;95463.59;;;1.36;100.00
54994;BME280;40891;47.242;8.648;2022-12-10T14:08:35;95467.50;;;1.35;100.00
54994;BME280;40891;47.242;8.648;2022-12-10T14:11:04;95467.09;;;1.36;100.00
54994;BME280;40891;47.242;8.648;2022-12-10T14:13:41;95469.78;;;1.40;100.00
54994;BME280;40891;47.242;8.648;2022-12-10T14:16:13;95482.72;;;1.40;100.00
54994;BME280;40891;47.242;8.648;2022-12-10T14:18:42;95481.97;;;1.35;100.00
54994;BME280;40891;47.242;8.648;2022-12-10T14:21:10;95488.94;;;1.40;100.00
54994;BME280;40891;47.242;8.648;2022-12-10T14:23:44;95487.81;;;1.37;100.00